createdAt,value
2022-12-18T00:07:16.048Z,-8.2
2022-12-18T00:17:16.984Z,-8.4
2022-12-18T00:27:17.114Z,-8.4
2022-12-18T00:47:18.173Z,-8.5
2022-12-18T01:17:19.502Z,-8.8
2022-12-18T01:27:19.662Z,-8.8
2022-12-18T01:37:20.296Z,-8.8
2022-12-18T01:47:20.812Z,-8.9
2022-12-18T01:57:21.174Z,-8.9
2022-12-18T02:07:21.903Z,-8.9
2022-12-18T02:17:22.942Z,-8.8
2022-12-18T02:27:23.145Z,-8.9
2022-12-18T02:37:23.809Z,-9
2022-12-18T02:57:24.959Z,-8.8
2022-12-18T03:07:25.084Z,-8.9
2022-12-18T03:17:25.555Z,-9.1
2022-12-18T03:27:26.044Z,-9.2
2022-12-18T03:37:26.654Z,-9.4
2022-12-18T03:47:27.637Z,-9.6
2022-12-18T03:57:28.332Z,-9.8
2022-12-18T04:07:28.722Z,-10
2022-12-18T04:17:29.198Z,-10.1
2022-12-18T04:27:29.761Z,-10
2022-12-18T04:37:30.661Z,-10
2022-12-18T04:47:31.402Z,-10.1
2022-12-18T04:57:32.239Z,-10.3
2022-12-18T05:07:32.770Z,-10.3
2022-12-18T05:17:33.290Z,-10.2
2022-12-18T05:27:34.168Z,-9.3
2022-12-18T05:47:34.731Z,-9
2022-12-18T05:57:34.892Z,-9
2022-12-18T06:07:35.362Z,-9.1
2022-12-18T06:17:36.173Z,-9.1
2022-12-18T06:27:37.108Z,-9.2
2022-12-18T06:37:37.492Z,-9.3
2022-12-18T06:57:38.895Z,-9.5
2022-12-18T07:07:39.636Z,-9.4
2022-12-18T07:17:40.620Z,-9.3
2022-12-18T07:27:41.133Z,-9.2
2022-12-18T07:47:42.642Z,-10
2022-12-18T07:57:51.936Z,-9.8
2022-12-18T08:07:43.824Z,-9
2022-12-18T08:17:44.691Z,-8.5
2022-12-18T08:27:45.240Z,-8.3
2022-12-18T08:37:45.932Z,-8.3
2022-12-18T08:47:46.851Z,-8
2022-12-18T08:57:47.913Z,-7.8
2022-12-18T09:07:48.319Z,-7.6
2022-12-18T09:17:48.444Z,-7.4
2022-12-18T09:27:48.737Z,-7.2
2022-12-18T09:37:49.368Z,-7
2022-12-18T09:47:50.144Z,-6.7
2022-12-18T09:57:51.099Z,-6.3
2022-12-18T10:07:51.394Z,-6
2022-12-18T10:17:51.813Z,-5.7
2022-12-18T10:37:53.240Z,-5.3
2022-12-18T10:57:53.932Z,-4.7
2022-12-18T11:07:54.600Z,-4.5
2022-12-18T11:17:54.741Z,-4.2
2022-12-18T11:27:55.246Z,-3.9
2022-12-18T11:37:55.794Z,-3.7
2022-12-18T11:47:56.864Z,-3.4
2022-12-18T11:57:57.706Z,-3.3
2022-12-18T12:07:58.654Z,-3
2022-12-18T12:17:58.999Z,-2.8
2022-12-18T12:27:59.823Z,-2.6
2022-12-18T12:38:00.265Z,-2.3
2022-12-18T12:48:00.658Z,-2.2
2022-12-18T12:58:01.654Z,-2.1
2022-12-18T13:08:02.423Z,-2
2022-12-18T13:18:02.596Z,-1.9
2022-12-18T13:28:03.271Z,-1.8
2022-12-18T13:38:03.991Z,-1.7
2022-12-18T13:48:04.852Z,-1.7
2022-12-18T13:58:05.489Z,-1.7
2022-12-18T14:08:05.630Z,-1.6
2022-12-18T14:18:05.785Z,-1.6
2022-12-18T14:28:06.626Z,-1.7
2022-12-18T14:38:07.041Z,-1.7
2022-12-18T14:48:07.806Z,-1.7
2022-12-18T14:58:07.918Z,-1.7
2022-12-18T15:08:08.522Z,-1.7
2022-12-18T15:28:09.778Z,-1.7
2022-12-18T15:58:11.120Z,-1.8
2022-12-18T16:08:11.815Z,-1.8
2022-12-18T16:18:12.806Z,-1.7
2022-12-18T16:28:13.617Z,-1.6
2022-12-18T16:38:14.705Z,-1.6
2022-12-18T16:58:15.538Z,-1.6
2022-12-18T17:08:16.079Z,-1.6
2022-12-18T17:18:16.824Z,-1.7
2022-12-18T17:28:17.531Z,-1.5
2022-12-18T17:38:18.058Z,-1.5
2022-12-18T17:48:18.844Z,-1.6
2022-12-18T17:58:19.869Z,-1.7
2022-12-18T18:28:21.768Z,-1.8
2022-12-18T18:48:22.272Z,-1.4
2022-12-18T18:58:22.584Z,-0.9
2022-12-18T19:08:22.768Z,-0.8
2022-12-18T19:18:22.912Z,-0.3
2022-12-18T19:28:23.281Z,0.2
2022-12-18T19:38:23.745Z,0.3
2022-12-18T19:48:24.089Z,0.4
2022-12-18T19:58:24.988Z,0.6
2022-12-18T20:18:26.597Z,0.7
2022-12-18T20:28:26.779Z,0.7
2022-12-18T20:38:27.134Z,0.7
2022-12-18T20:58:28.624Z,0.8
2022-12-18T21:08:29.210Z,0.8
2022-12-18T21:18:30.191Z,0.7
2022-12-18T21:28:31.270Z,0.7
2022-12-18T21:38:32.245Z,0.7
2022-12-18T21:48:32.882Z,0.5
2022-12-18T21:58:33.475Z,0.4
2022-12-18T22:08:33.924Z,0.4
2022-12-18T22:18:34.962Z,0.4
2022-12-18T22:28:36.022Z,0.4
2022-12-18T22:38:36.188Z,0.3
2022-12-18T22:48:36.248Z,0.2
2022-12-18T23:18:37.612Z,0.7
2022-12-18T23:28:37.936Z,0.8
2022-12-18T23:38:38.259Z,0.6
2022-12-18T23:48:39.106Z,0.6
2022-12-18T23:58:39.285Z,0.6
